sensor_id;sensor_type;location;lat;lon;timestamp;P1;durP1;ratioP1;P2;durP2;ratioP2
7783;SDS011;19359;51.402;6.778;2023-08-06T00:00:54;718.03;;;353.02;;
7783;SDS011;19359;51.402;6.778;2023-08-06T00:03:21;716.50;;;345.80;;
7783;SDS011;19359;51.402;6.778;2023-08-06T00:05:48;706.47;;;344.10;;
7783;SDS011;19359;51.402;6.778;2023-08-06T00:08:15;708.67;;;344.05;;
7783;SDS011;19359;51.402;6.778;2023-08-06T00:10:43;707.35;;;347.58;;
7783;SDS011;19359;51.402;6.778;2023-08-06T00:13:10;711.40;;;343.52;;
7783;SDS011;19359;51.402;6.778;2023-08-06T00:15:37;705.17;;;354.13;;
7783;SDS011;19359;51.402;6.778;2023-08-06T00:18:04;702.42;;;343.02;;
7783;SDS011;19359;51.402;6.778;2023-08-06T00:20:31;704.78;;;346.60;;
7783;SDS011;19359;51.402;6.778;2023-08-06T00:22:58;701.25;;;347.17;;
7783;SDS011;19359;51.402;6.778;2023-08-06T00:25:25;689.85;;;340.08;;
7783;SDS011;19359;51.402;6.778;2023-08-06T00:27:53;705.00;;;347.85;;
7783;SDS011;19359;51.402;6.778;2023-08-06T00:30:21;697.97;;;336.00;;
7783;SDS011;19359;51.402;6.778;2023-08-06T00:32:48;708.03;;;346.77;;
7783;SDS011;19359;51.402;6.778;2023-08-06T00:35:15;700.08;;;340.67;;
7783;SDS011;19359;51.402;6.778;2023-08-06T00:37:41;697.30;;;339.98;;
7783;SDS011;19359;51.402;6.778;2023-08-06T00:40:08;697.90;;;345.42;;
7783;SDS011;19359;51.402;6.778;2023-08-06T00:42:35;689.92;;;339.30;;
7783;SDS011;19359;51.402;6.778;2023-08-06T00:45:04;686.85;;;337.90;;
7783;SDS011;19359;51.402;6.778;2023-08-06T00:47:31;699.60;;;338.95;;
7783;SDS011;19359;51.402;6.778;2023-08-06T00:49:58;701.30;;;337.55;;
7783;SDS011;19359;51.402;6.778;2023-08-06T00:52:25;700.53;;;336.33;;
7783;SDS011;19359;51.402;6.778;2023-08-06T00:54:52;700.15;;;333.20;;
7783;SDS011;19359;51.402;6.778;2023-08-06T00:57:19;708.03;;;339.17;;
7783;SDS011;19359;51.402;6.778;2023-08-06T00:59:48;696.80;;;334.70;;
7783;SDS011;19359;51.402;6.778;2023-08-06T01:02:16;699.47;;;336.80;;
7783;SDS011;19359;51.402;6.778;2023-08-06T01:04:43;709.65;;;341.98;;
7783;SDS011;19359;51.402;6.778;2023-08-06T01:07:13;700.70;;;336.38;;
7783;SDS011;19359;51.402;6.778;2023-08-06T01:09:54;702.50;;;340.00;;
7783;SDS011;19359;51.402;6.778;2023-08-06T01:12:30;706.75;;;337.02;;
7783;SDS011;19359;51.402;6.778;2023-08-06T01:15:06;701.03;;;337.63;;
7783;SDS011;19359;51.402;6.778;2023-08-06T01:17:38;699.20;;;341.70;;
7783;SDS011;19359;51.402;6.778;2023-08-06T01:20:06;700.55;;;344.73;;
7783;SDS011;19359;51.402;6.778;2023-08-06T01:22:35;707.15;;;343.27;;
7783;SDS011;19359;51.402;6.778;2023-08-06T01:25:02;715.75;;;350.13;;
7783;SDS011;19359;51.402;6.778;2023-08-06T01:27:30;706.97;;;343.27;;
7783;SDS011;19359;51.402;6.778;2023-08-06T01:30:02;712.40;;;348.15;;
7783;SDS011;19359;51.402;6.778;2023-08-06T01:32:31;718.50;;;348.17;;
7783;SDS011;19359;51.402;6.778;2023-08-06T01:35:00;717.30;;;340.33;;
7783;SDS011;19359;51.402;6.778;2023-08-06T01:37:29;716.83;;;349.67;;
7783;SDS011;19359;51.402;6.778;2023-08-06T01:39:58;721.42;;;345.17;;
7783;SDS011;19359;51.402;6.778;2023-08-06T01:42:25;712.60;;;349.25;;
7783;SDS011;19359;51.402;6.778;2023-08-06T01:44:52;705.05;;;345.65;;
7783;SDS011;19359;51.402;6.778;2023-08-06T01:47:19;708.60;;;345.30;;
7783;SDS011;19359;51.402;6.778;2023-08-06T01:49:45;709.40;;;348.30;;
7783;SDS011;19359;51.402;6.778;2023-08-06T01:52:12;707.08;;;354.80;;
7783;SDS011;19359;51.402;6.778;2023-08-06T01:54:39;713.15;;;354.55;;
7783;SDS011;19359;51.402;6.778;2023-08-06T01:57:08;710.50;;;351.10;;
7783;SDS011;19359;51.402;6.778;2023-08-06T01:59:34;695.33;;;345.42;;
7783;SDS011;19359;51.402;6.778;2023-08-06T02:02:01;698.17;;;344.83;;
7783;SDS011;19359;51.402;6.778;2023-08-06T02:04:29;693.08;;;346.75;;
7783;SDS011;19359;51.402;6.778;2023-08-06T02:06:55;692.42;;;351.80;;
7783;SDS011;19359;51.402;6.778;2023-08-06T02:09:22;696.35;;;350.63;;
7783;SDS011;19359;51.402;6.778;2023-08-06T02:11:49;701.95;;;355.90;;
7783;SDS011;19359;51.402;6.778;2023-08-06T02:14:17;713.33;;;344.67;;
7783;SDS011;19359;51.402;6.778;2023-08-06T02:16:44;713.72;;;344.60;;
7783;SDS011;19359;51.402;6.778;2023-08-06T02:19:11;704.50;;;347.10;;
7783;SDS011;19359;51.402;6.778;2023-08-06T02:21:38;703.50;;;344.38;;
7783;SDS011;19359;51.402;6.778;2023-08-06T02:24:05;698.63;;;345.15;;
7783;SDS011;19359;51.402;6.778;2023-08-06T02:26:32;693.72;;;344.58;;
7783;SDS011;19359;51.402;6.778;2023-08-06T02:28:59;705.33;;;340.85;;
7783;SDS011;19359;51.402;6.778;2023-08-06T02:31:27;706.67;;;339.60;;
7783;SDS011;19359;51.402;6.778;2023-08-06T02:33:54;717.78;;;341.77;;
7783;SDS011;19359;51.402;6.778;2023-08-06T02:36:22;708.95;;;330.73;;
7783;SDS011;19359;51.402;6.778;2023-08-06T02:38:49;707.97;;;342.65;;
7783;SDS011;19359;51.402;6.778;2023-08-06T02:41:16;702.65;;;331.48;;
7783;SDS011;19359;51.402;6.778;2023-08-06T02:43:43;701.88;;;337.40;;
7783;SDS011;19359;51.402;6.778;2023-08-06T02:46:10;702.22;;;338.15;;
7783;SDS011;19359;51.402;6.778;2023-08-06T02:48:38;739.35;;;356.45;;
7783;SDS011;19359;51.402;6.778;2023-08-06T02:51:05;719.80;;;346.17;;
7783;SDS011;19359;51.402;6.778;2023-08-06T02:53:32;702.83;;;336.27;;
7783;SDS011;19359;51.402;6.778;2023-08-06T02:55:59;702.75;;;345.77;;
7783;SDS011;19359;51.402;6.778;2023-08-06T02:58:26;694.53;;;348.88;;
7783;SDS011;19359;51.402;6.778;2023-08-06T03:00:59;730.45;;;366.35;;
7783;SDS011;19359;51.402;6.778;2023-08-06T03:03:28;690.80;;;346.02;;
7783;SDS011;19359;51.402;6.778;2023-08-06T03:05:56;701.95;;;344.02;;
7783;SDS011;19359;51.402;6.778;2023-08-06T03:08:23;707.08;;;352.55;;
7783;SDS011;19359;51.402;6.778;2023-08-06T03:10:50;730.03;;;354.45;;
7783;SDS011;19359;51.402;6.778;2023-08-06T03:13:17;695.33;;;333.23;;
7783;SDS011;19359;51.402;6.778;2023-08-06T03:15:51;693.22;;;335.65;;
7783;SDS011;19359;51.402;6.778;2023-08-06T03:18:18;694.80;;;331.52;;
7783;SDS011;19359;51.402;6.778;2023-08-06T03:20:45;697.80;;;340.08;;
7783;SDS011;19359;51.402;6.778;2023-08-06T03:23:13;690.22;;;333.23;;
7783;SDS011;19359;51.402;6.778;2023-08-06T03:25:40;688.47;;;338.95;;
7783;SDS011;19359;51.402;6.778;2023-08-06T03:28:07;700.67;;;348.23;;
7783;SDS011;19359;51.402;6.778;2023-08-06T03:30:34;689.10;;;333.90;;
7783;SDS011;19359;51.402;6.778;2023-08-06T03:33:00;697.85;;;341.15;;
7783;SDS011;19359;51.402;6.778;2023-08-06T03:35:27;698.92;;;331.90;;
7783;SDS011;19359;51.402;6.778;2023-08-06T03:37:54;691.30;;;332.05;;
7783;SDS011;19359;51.402;6.778;2023-08-06T03:40:22;692.20;;;336.33;;
7783;SDS011;19359;51.402;6.778;2023-08-06T03:42:49;687.50;;;329.40;;
7783;SDS011;19359;51.402;6.778;2023-08-06T03:45:16;682.47;;;333.98;;
7783;SDS011;19359;51.402;6.778;2023-08-06T03:47:42;689.97;;;341.00;;
7783;SDS011;19359;51.402;6.778;2023-08-06T03:50:09;692.47;;;329.83;;
7783;SDS011;19359;51.402;6.778;2023-08-06T03:52:36;690.72;;;330.33;;
7783;SDS011;19359;51.402;6.778;2023-08-06T03:55:03;690.85;;;331.35;;
7783;SDS011;19359;51.402;6.778;2023-08-06T03:57:31;695.58;;;330.60;;
7783;SDS011;19359;51.402;6.778;2023-08-06T03:59:58;708.53;;;335.10;;
7783;SDS011;19359;51.402;6.778;2023-08-06T04:02:25;723.40;;;354.65;;
7783;SDS011;19359;51.402;6.778;2023-08-06T04:04:52;719.20;;;345.77;;
7783;SDS011;19359;51.402;6.778;2023-08-06T04:07:19;712.85;;;341.88;;
7783;SDS011;19359;51.402;6.778;2023-08-06T04:09:53;687.30;;;322.67;;
7783;SDS011;19359;51.402;6.778;2023-08-06T04:12:20;715.30;;;341.20;;
7783;SDS011;19359;51.402;6.778;2023-08-06T04:14:49;712.10;;;350.67;;
7783;SDS011;19359;51.402;6.778;2023-08-06T04:17:17;716.75;;;352.30;;
7783;SDS011;19359;51.402;6.778;2023-08-06T04:19:45;706.95;;;346.33;;
7783;SDS011;19359;51.402;6.778;2023-08-06T04:22:13;710.30;;;343.80;;
7783;SDS011;19359;51.402;6.778;2023-08-06T04:24:41;720.67;;;349.95;;
7783;SDS011;19359;51.402;6.778;2023-08-06T04:27:08;723.70;;;354.08;;
7783;SDS011;19359;51.402;6.778;2023-08-06T04:29:35;709.80;;;339.92;;
7783;SDS011;19359;51.402;6.778;2023-08-06T04:32:05;685.45;;;329.08;;
7783;SDS011;19359;51.402;6.778;2023-08-06T04:34:33;682.40;;;333.88;;
7783;SDS011;19359;51.402;6.778;2023-08-06T04:37:00;685.67;;;329.90;;
7783;SDS011;19359;51.402;6.778;2023-08-06T04:39:28;685.22;;;329.15;;
7783;SDS011;19359;51.402;6.778;2023-08-06T04:41:55;703.92;;;342.25;;
7783;SDS011;19359;51.402;6.778;2023-08-06T04:44:22;692.55;;;338.63;;
7783;SDS011;19359;51.402;6.778;2023-08-06T04:46:49;689.40;;;332.90;;
7783;SDS011;19359;51.402;6.778;2023-08-06T04:49:18;690.45;;;342.52;;
7783;SDS011;19359;51.402;6.778;2023-08-06T04:51:46;690.80;;;343.38;;
7783;SDS011;19359;51.402;6.778;2023-08-06T04:54:12;680.90;;;342.50;;
7783;SDS011;19359;51.402;6.778;2023-08-06T04:56:39;692.88;;;344.70;;
7783;SDS011;19359;51.402;6.778;2023-08-06T04:59:06;685.17;;;338.60;;
7783;SDS011;19359;51.402;6.778;2023-08-06T05:01:33;688.13;;;342.25;;
7783;SDS011;19359;51.402;6.778;2023-08-06T05:04:00;681.35;;;342.70;;
7783;SDS011;19359;51.402;6.778;2023-08-06T05:06:28;683.90;;;341.88;;
7783;SDS011;19359;51.402;6.778;2023-08-06T05:08:55;702.97;;;357.85;;
7783;SDS011;19359;51.402;6.778;2023-08-06T05:11:21;693.35;;;347.77;;
7783;SDS011;19359;51.402;6.778;2023-08-06T05:13:49;698.40;;;349.23;;
7783;SDS011;19359;51.402;6.778;2023-08-06T05:16:16;696.90;;;347.48;;
7783;SDS011;19359;51.402;6.778;2023-08-06T05:18:43;691.17;;;341.38;;
7783;SDS011;19359;51.402;6.778;2023-08-06T05:21:09;688.65;;;347.95;;
7783;SDS011;19359;51.402;6.778;2023-08-06T05:23:37;695.50;;;351.02;;
7783;SDS011;19359;51.402;6.778;2023-08-06T05:26:04;703.00;;;357.23;;
7783;SDS011;19359;51.402;6.778;2023-08-06T05:28:31;707.95;;;357.05;;
7783;SDS011;19359;51.402;6.778;2023-08-06T05:30:58;717.83;;;361.10;;
7783;SDS011;19359;51.402;6.778;2023-08-06T05:33:24;710.65;;;355.25;;
7783;SDS011;19359;51.402;6.778;2023-08-06T05:35:51;718.08;;;356.35;;
7783;SDS011;19359;51.402;6.778;2023-08-06T05:38:18;717.22;;;367.33;;
7783;SDS011;19359;51.402;6.778;2023-08-06T05:40:46;739.78;;;379.63;;
7783;SDS011;19359;51.402;6.778;2023-08-06T05:43:14;717.70;;;365.13;;
7783;SDS011;19359;51.402;6.778;2023-08-06T05:45:43;710.42;;;376.10;;
7783;SDS011;19359;51.402;6.778;2023-08-06T05:48:11;702.55;;;366.45;;
7783;SDS011;19359;51.402;6.778;2023-08-06T05:50:38;710.83;;;362.67;;
7783;SDS011;19359;51.402;6.778;2023-08-06T05:53:05;711.70;;;362.75;;
7783;SDS011;19359;51.402;6.778;2023-08-06T05:55:32;728.00;;;378.25;;
7783;SDS011;19359;51.402;6.778;2023-08-06T05:58:00;707.05;;;373.58;;
7783;SDS011;19359;51.402;6.778;2023-08-06T06:00:27;705.70;;;363.77;;
7783;SDS011;19359;51.402;6.778;2023-08-06T06:02:54;699.10;;;355.75;;
7783;SDS011;19359;51.402;6.778;2023-08-06T06:05:20;711.97;;;376.40;;
7783;SDS011;19359;51.402;6.778;2023-08-06T06:07:47;700.85;;;367.08;;
7783;SDS011;19359;51.402;6.778;2023-08-06T06:10:14;703.33;;;367.15;;
7783;SDS011;19359;51.402;6.778;2023-08-06T06:12:41;711.92;;;366.58;;
7783;SDS011;19359;51.402;6.778;2023-08-06T06:15:09;718.78;;;378.88;;
7783;SDS011;19359;51.402;6.778;2023-08-06T06:17:36;737.30;;;394.35;;
7783;SDS011;19359;51.402;6.778;2023-08-06T06:20:04;728.40;;;382.27;;
7783;SDS011;19359;51.402;6.778;2023-08-06T06:22:32;735.13;;;390.30;;
7783;SDS011;19359;51.402;6.778;2023-08-06T06:24:58;741.35;;;390.63;;
7783;SDS011;19359;51.402;6.778;2023-08-06T06:27:26;740.72;;;404.60;;
7783;SDS011;19359;51.402;6.778;2023-08-06T06:29:52;737.38;;;404.20;;
7783;SDS011;19359;51.402;6.778;2023-08-06T06:32:21;743.78;;;411.75;;
7783;SDS011;19359;51.402;6.778;2023-08-06T06:34:48;762.65;;;417.48;;
7783;SDS011;19359;51.402;6.778;2023-08-06T06:37:15;745.17;;;415.00;;
7783;SDS011;19359;51.402;6.778;2023-08-06T06:39:42;746.33;;;408.13;;
7783;SDS011;19359;51.402;6.778;2023-08-06T06:42:09;752.38;;;413.50;;
7783;SDS011;19359;51.402;6.778;2023-08-06T06:44:35;766.58;;;419.67;;
7783;SDS011;19359;51.402;6.778;2023-08-06T06:47:02;757.58;;;416.95;;
7783;SDS011;19359;51.402;6.778;2023-08-06T06:49:31;764.10;;;434.13;;
7783;SDS011;19359;51.402;6.778;2023-08-06T06:51:58;771.78;;;433.58;;
7783;SDS011;19359;51.402;6.778;2023-08-06T06:54:25;767.50;;;438.58;;
7783;SDS011;19359;51.402;6.778;2023-08-06T06:56:52;778.47;;;452.80;;
7783;SDS011;19359;51.402;6.778;2023-08-06T06:59:19;766.20;;;436.35;;
7783;SDS011;19359;51.402;6.778;2023-08-06T07:01:46;764.90;;;435.52;;
7783;SDS011;19359;51.402;6.778;2023-08-06T07:04:13;766.67;;;443.48;;
7783;SDS011;19359;51.402;6.778;2023-08-06T07:06:41;769.22;;;447.63;;
7783;SDS011;19359;51.402;6.778;2023-08-06T07:09:08;772.33;;;454.30;;
7783;SDS011;19359;51.402;6.778;2023-08-06T07:11:35;773.22;;;445.58;;
7783;SDS011;19359;51.402;6.778;2023-08-06T07:14:02;774.05;;;454.58;;
7783;SDS011;19359;51.402;6.778;2023-08-06T07:16:28;777.47;;;457.30;;
7783;SDS011;19359;51.402;6.778;2023-08-06T07:18:55;777.22;;;465.55;;
7783;SDS011;19359;51.402;6.778;2023-08-06T07:21:22;781.17;;;472.05;;
7783;SDS011;19359;51.402;6.778;2023-08-06T07:23:50;788.15;;;480.38;;
7783;SDS011;19359;51.402;6.778;2023-08-06T07:26:17;786.95;;;479.85;;
7783;SDS011;19359;51.402;6.778;2023-08-06T07:28:44;780.10;;;476.33;;
7783;SDS011;19359;51.402;6.778;2023-08-06T07:31:11;785.60;;;482.65;;
7783;SDS011;19359;51.402;6.778;2023-08-06T07:33:38;793.78;;;497.52;;
7783;SDS011;19359;51.402;6.778;2023-08-06T07:36:09;787.10;;;493.73;;
7783;SDS011;19359;51.402;6.778;2023-08-06T07:38:36;789.10;;;500.70;;
7783;SDS011;19359;51.402;6.778;2023-08-06T07:41:05;792.30;;;495.15;;
7783;SDS011;19359;51.402;6.778;2023-08-06T07:43:32;786.80;;;493.52;;
7783;SDS011;19359;51.402;6.778;2023-08-06T07:46:00;802.72;;;512.40;;
7783;SDS011;19359;51.402;6.778;2023-08-06T07:48:28;794.70;;;516.08;;
7783;SDS011;19359;51.402;6.778;2023-08-06T07:50:55;794.70;;;513.45;;
7783;SDS011;19359;51.402;6.778;2023-08-06T07:53:22;797.00;;;507.77;;
7783;SDS011;19359;51.402;6.778;2023-08-06T07:55:51;788.72;;;497.38;;
7783;SDS011;19359;51.402;6.778;2023-08-06T07:58:20;793.03;;;507.35;;
7783;SDS011;19359;51.402;6.778;2023-08-06T08:00:47;785.17;;;496.15;;
7783;SDS011;19359;51.402;6.778;2023-08-06T08:03:14;788.22;;;506.10;;
7783;SDS011;19359;51.402;6.778;2023-08-06T08:05:42;802.30;;;504.08;;
7783;SDS011;19359;51.402;6.778;2023-08-06T08:08:09;789.17;;;499.35;;
7783;SDS011;19359;51.402;6.778;2023-08-06T08:10:36;784.58;;;494.15;;
7783;SDS011;19359;51.402;6.778;2023-08-06T08:13:04;791.95;;;497.15;;
7783;SDS011;19359;51.402;6.778;2023-08-06T08:15:32;780.83;;;484.27;;
7783;SDS011;19359;51.402;6.778;2023-08-06T08:18:00;800.05;;;500.20;;
7783;SDS011;19359;51.402;6.778;2023-08-06T08:20:27;782.67;;;484.05;;
7783;SDS011;19359;51.402;6.778;2023-08-06T08:22:57;781.83;;;482.77;;
7783;SDS011;19359;51.402;6.778;2023-08-06T08:25:25;783.67;;;480.48;;
7783;SDS011;19359;51.402;6.778;2023-08-06T08:27:52;780.60;;;485.25;;
7783;SDS011;19359;51.402;6.778;2023-08-06T08:30:20;783.45;;;479.55;;
7783;SDS011;19359;51.402;6.778;2023-08-06T08:32:51;778.97;;;482.20;;
7783;SDS011;19359;51.402;6.778;2023-08-06T08:35:19;775.25;;;465.90;;
7783;SDS011;19359;51.402;6.778;2023-08-06T08:37:46;776.97;;;474.50;;
7783;SDS011;19359;51.402;6.778;2023-08-06T08:40:14;786.13;;;502.50;;
7783;SDS011;19359;51.402;6.778;2023-08-06T08:42:41;781.90;;;480.98;;
7783;SDS011;19359;51.402;6.778;2023-08-06T08:45:10;803.42;;;504.48;;
7783;SDS011;19359;51.402;6.778;2023-08-06T08:47:39;783.63;;;486.70;;
7783;SDS011;19359;51.402;6.778;2023-08-06T08:50:09;782.95;;;488.80;;
7783;SDS011;19359;51.402;6.778;2023-08-06T08:52:38;787.35;;;498.95;;
7783;SDS011;19359;51.402;6.778;2023-08-06T08:55:06;787.97;;;496.90;;
7783;SDS011;19359;51.402;6.778;2023-08-06T08:57:34;789.42;;;507.90;;
7783;SDS011;19359;51.402;6.778;2023-08-06T09:00:01;789.25;;;505.65;;
7783;SDS011;19359;51.402;6.778;2023-08-06T09:02:28;793.67;;;509.70;;
7783;SDS011;19359;51.402;6.778;2023-08-06T09:04:57;787.75;;;502.63;;
7783;SDS011;19359;51.402;6.778;2023-08-06T09:07:28;791.42;;;512.80;;
7783;SDS011;19359;51.402;6.778;2023-08-06T09:09:58;789.17;;;503.08;;
7783;SDS011;19359;51.402;6.778;2023-08-06T09:12:28;794.88;;;521.42;;
7783;SDS011;19359;51.402;6.778;2023-08-06T09:14:55;788.83;;;500.58;;
7783;SDS011;19359;51.402;6.778;2023-08-06T09:17:22;792.85;;;508.58;;
7783;SDS011;19359;51.402;6.778;2023-08-06T09:19:49;785.80;;;498.80;;
7783;SDS011;19359;51.402;6.778;2023-08-06T09:22:15;786.88;;;506.27;;
7783;SDS011;19359;51.402;6.778;2023-08-06T09:24:44;786.47;;;498.80;;
7783;SDS011;19359;51.402;6.778;2023-08-06T09:27:11;786.47;;;493.35;;
7783;SDS011;19359;51.402;6.778;2023-08-06T09:29:42;787.20;;;488.45;;
7783;SDS011;19359;51.402;6.778;2023-08-06T09:32:10;785.78;;;494.65;;
7783;SDS011;19359;51.402;6.778;2023-08-06T09:34:38;782.25;;;478.35;;
7783;SDS011;19359;51.402;6.778;2023-08-06T09:37:08;781.22;;;482.10;;
7783;SDS011;19359;51.402;6.778;2023-08-06T09:39:35;783.35;;;475.48;;
7783;SDS011;19359;51.402;6.778;2023-08-06T09:42:04;785.83;;;482.90;;
7783;SDS011;19359;51.402;6.778;2023-08-06T09:44:32;777.33;;;470.55;;
7783;SDS011;19359;51.402;6.778;2023-08-06T09:47:01;779.38;;;474.42;;
7783;SDS011;19359;51.402;6.778;2023-08-06T09:49:39;781.20;;;481.52;;
7783;SDS011;19359;51.402;6.778;2023-08-06T09:52:08;783.03;;;482.85;;
7783;SDS011;19359;51.402;6.778;2023-08-06T09:54:37;778.47;;;473.83;;
7783;SDS011;19359;51.402;6.778;2023-08-06T09:57:06;781.78;;;490.88;;
7783;SDS011;19359;51.402;6.778;2023-08-06T09:59:33;788.53;;;498.02;;
7783;SDS011;19359;51.402;6.778;2023-08-06T10:02:01;788.80;;;501.77;;
7783;SDS011;19359;51.402;6.778;2023-08-06T10:04:29;791.63;;;512.35;;
7783;SDS011;19359;51.402;6.778;2023-08-06T10:06:57;788.30;;;512.97;;
7783;SDS011;19359;51.402;6.778;2023-08-06T10:09:25;793.10;;;531.25;;
7783;SDS011;19359;51.402;6.778;2023-08-06T10:11:52;795.50;;;529.33;;
7783;SDS011;19359;51.402;6.778;2023-08-06T10:14:23;796.60;;;532.78;;
7783;SDS011;19359;51.402;6.778;2023-08-06T10:16:52;794.78;;;539.85;;
7783;SDS011;19359;51.402;6.778;2023-08-06T10:19:22;796.28;;;528.95;;
7783;SDS011;19359;51.402;6.778;2023-08-06T10:22:09;797.65;;;534.58;;
7783;SDS011;19359;51.402;6.778;2023-08-06T10:24:47;794.97;;;523.20;;
7783;SDS011;19359;51.402;6.778;2023-08-06T10:27:18;792.15;;;511.42;;
7783;SDS011;19359;51.402;6.778;2023-08-06T10:29:48;792.05;;;517.47;;
7783;SDS011;19359;51.402;6.778;2023-08-06T10:32:15;794.22;;;511.00;;
7783;SDS011;19359;51.402;6.778;2023-08-06T10:34:55;789.60;;;509.23;;
7783;SDS011;19359;51.402;6.778;2023-08-06T10:37:23;791.60;;;511.27;;
7783;SDS011;19359;51.402;6.778;2023-08-06T10:39:50;785.35;;;494.42;;
7783;SDS011;19359;51.402;6.778;2023-08-06T10:42:21;777.28;;;487.30;;
7783;SDS011;19359;51.402;6.778;2023-08-06T10:47:39;696.88;;;434.33;;
7783;SDS011;19359;51.402;6.778;2023-08-06T10:50:06;668.17;;;407.25;;
7783;SDS011;19359;51.402;6.778;2023-08-06T10:52:34;660.50;;;392.38;;
7783;SDS011;19359;51.402;6.778;2023-08-06T10:55:00;643.72;;;370.98;;
7783;SDS011;19359;51.402;6.778;2023-08-06T10:57:27;640.08;;;368.25;;
7783;SDS011;19359;51.402;6.778;2023-08-06T10:59:54;642.55;;;358.00;;
7783;SDS011;19359;51.402;6.778;2023-08-06T11:02:22;621.47;;;338.67;;
7783;SDS011;19359;51.402;6.778;2023-08-06T11:04:49;621.97;;;337.60;;
7783;SDS011;19359;51.402;6.778;2023-08-06T11:07:17;601.67;;;325.65;;
7783;SDS011;19359;51.402;6.778;2023-08-06T11:09:43;613.10;;;321.92;;
7783;SDS011;19359;51.402;6.778;2023-08-06T11:12:10;627.92;;;307.38;;
7783;SDS011;19359;51.402;6.778;2023-08-06T11:14:37;630.00;;;308.05;;
7783;SDS011;19359;51.402;6.778;2023-08-06T11:17:04;619.13;;;305.35;;
7783;SDS011;19359;51.402;6.778;2023-08-06T11:19:33;609.33;;;296.60;;
7783;SDS011;19359;51.402;6.778;2023-08-06T11:22:00;619.20;;;293.77;;
7783;SDS011;19359;51.402;6.778;2023-08-06T11:24:27;609.00;;;306.02;;
7783;SDS011;19359;51.402;6.778;2023-08-06T11:26:54;583.35;;;299.38;;
7783;SDS011;19359;51.402;6.778;2023-08-06T11:29:20;583.40;;;299.88;;
7783;SDS011;19359;51.402;6.778;2023-08-06T11:31:48;582.83;;;288.92;;
7783;SDS011;19359;51.402;6.778;2023-08-06T11:34:15;579.70;;;295.20;;
7783;SDS011;19359;51.402;6.778;2023-08-06T11:36:44;582.65;;;294.73;;
7783;SDS011;19359;51.402;6.778;2023-08-06T11:39:10;562.38;;;291.38;;
7783;SDS011;19359;51.402;6.778;2023-08-06T11:41:38;565.28;;;285.77;;
7783;SDS011;19359;51.402;6.778;2023-08-06T11:44:06;561.38;;;293.27;;
7783;SDS011;19359;51.402;6.778;2023-08-06T11:46:51;563.67;;;284.50;;
7783;SDS011;19359;51.402;6.778;2023-08-06T11:49:21;560.80;;;281.83;;
7783;SDS011;19359;51.402;6.778;2023-08-06T11:52:08;569.15;;;286.02;;
7783;SDS011;19359;51.402;6.778;2023-08-06T11:54:35;558.17;;;277.85;;
7783;SDS011;19359;51.402;6.778;2023-08-06T11:57:03;589.45;;;288.83;;
7783;SDS011;19359;51.402;6.778;2023-08-06T11:59:31;570.53;;;285.80;;
7783;SDS011;19359;51.402;6.778;2023-08-06T12:01:59;574.58;;;282.90;;
7783;SDS011;19359;51.402;6.778;2023-08-06T12:04:27;569.22;;;280.98;;
7783;SDS011;19359;51.402;6.778;2023-08-06T12:06:54;571.10;;;272.83;;
7783;SDS011;19359;51.402;6.778;2023-08-06T12:09:22;573.08;;;283.70;;
7783;SDS011;19359;51.402;6.778;2023-08-06T12:11:49;583.63;;;274.83;;
7783;SDS011;19359;51.402;6.778;2023-08-06T12:14:16;575.97;;;281.92;;
7783;SDS011;19359;51.402;6.778;2023-08-06T12:16:43;594.63;;;290.85;;
7783;SDS011;19359;51.402;6.778;2023-08-06T12:19:10;582.00;;;285.75;;
7783;SDS011;19359;51.402;6.778;2023-08-06T12:21:36;588.08;;;284.33;;
7783;SDS011;19359;51.402;6.778;2023-08-06T12:24:04;584.85;;;275.70;;
7783;SDS011;19359;51.402;6.778;2023-08-06T12:26:34;590.35;;;288.88;;
7783;SDS011;19359;51.402;6.778;2023-08-06T12:29:00;599.53;;;294.88;;
7783;SDS011;19359;51.402;6.778;2023-08-06T12:31:27;589.95;;;288.52;;
7783;SDS011;19359;51.402;6.778;2023-08-06T12:33:54;589.13;;;286.65;;
7783;SDS011;19359;51.402;6.778;2023-08-06T12:36:21;616.97;;;296.00;;
7783;SDS011;19359;51.402;6.778;2023-08-06T12:38:48;613.85;;;298.55;;
7783;SDS011;19359;51.402;6.778;2023-08-06T12:41:15;622.67;;;301.33;;
7783;SDS011;19359;51.402;6.778;2023-08-06T12:43:43;628.00;;;306.70;;
7783;SDS011;19359;51.402;6.778;2023-08-06T12:46:10;611.28;;;310.67;;
7783;SDS011;19359;51.402;6.778;2023-08-06T12:48:37;613.13;;;314.58;;
7783;SDS011;19359;51.402;6.778;2023-08-06T12:51:04;623.63;;;309.08;;
7783;SDS011;19359;51.402;6.778;2023-08-06T12:53:31;613.30;;;306.23;;
7783;SDS011;19359;51.402;6.778;2023-08-06T12:55:58;603.63;;;317.08;;
7783;SDS011;19359;51.402;6.778;2023-08-06T12:58:24;602.38;;;309.70;;
7783;SDS011;19359;51.402;6.778;2023-08-06T13:00:52;634.05;;;315.05;;
7783;SDS011;19359;51.402;6.778;2023-08-06T13:03:20;621.85;;;311.45;;
7783;SDS011;19359;51.402;6.778;2023-08-06T13:05:47;633.55;;;315.77;;
7783;SDS011;19359;51.402;6.778;2023-08-06T13:08:13;631.58;;;304.73;;
7783;SDS011;19359;51.402;6.778;2023-08-06T13:10:40;639.20;;;311.05;;
7783;SDS011;19359;51.402;6.778;2023-08-06T13:13:07;640.67;;;314.95;;
7783;SDS011;19359;51.402;6.778;2023-08-06T13:15:35;621.42;;;307.02;;
7783;SDS011;19359;51.402;6.778;2023-08-06T13:18:03;623.72;;;312.95;;
7783;SDS011;19359;51.402;6.778;2023-08-06T13:20:30;640.65;;;309.83;;
7783;SDS011;19359;51.402;6.778;2023-08-06T13:22:57;647.67;;;314.38;;
7783;SDS011;19359;51.402;6.778;2023-08-06T13:25:26;632.15;;;305.92;;
7783;SDS011;19359;51.402;6.778;2023-08-06T13:27:53;645.20;;;319.70;;
7783;SDS011;19359;51.402;6.778;2023-08-06T13:30:20;661.60;;;321.38;;
7783;SDS011;19359;51.402;6.778;2023-08-06T13:32:48;634.83;;;312.83;;
7783;SDS011;19359;51.402;6.778;2023-08-06T13:35:16;633.53;;;308.92;;
7783;SDS011;19359;51.402;6.778;2023-08-06T13:37:43;624.10;;;304.80;;
7783;SDS011;19359;51.402;6.778;2023-08-06T13:40:10;630.05;;;312.60;;
7783;SDS011;19359;51.402;6.778;2023-08-06T13:42:37;626.35;;;313.38;;
7783;SDS011;19359;51.402;6.778;2023-08-06T13:45:05;638.58;;;319.35;;
7783;SDS011;19359;51.402;6.778;2023-08-06T13:47:32;665.10;;;313.30;;
7783;SDS011;19359;51.402;6.778;2023-08-06T13:49:59;631.95;;;311.10;;
7783;SDS011;19359;51.402;6.778;2023-08-06T13:52:27;642.67;;;314.20;;
7783;SDS011;19359;51.402;6.778;2023-08-06T13:54:53;671.17;;;315.05;;
7783;SDS011;19359;51.402;6.778;2023-08-06T13:57:20;670.47;;;321.80;;
7783;SDS011;19359;51.402;6.778;2023-08-06T13:59:47;663.13;;;319.25;;
7783;SDS011;19359;51.402;6.778;2023-08-06T14:02:14;654.72;;;320.42;;
7783;SDS011;19359;51.402;6.778;2023-08-06T14:04:41;655.60;;;332.55;;
7783;SDS011;19359;51.402;6.778;2023-08-06T14:07:07;667.63;;;336.50;;
7783;SDS011;19359;51.402;6.778;2023-08-06T14:09:35;660.58;;;343.83;;
7783;SDS011;19359;51.402;6.778;2023-08-06T14:12:02;668.22;;;347.60;;
7783;SDS011;19359;51.402;6.778;2023-08-06T14:14:30;684.92;;;344.02;;